This is the latest recevied weather packets stored in our database for station/object C31FR-13. If no packets are shown the sender has not sent any weather packets the latest 10 day(s).
| Time | Temp. | Humidity | Pressure | Rain* | Wind** | Luminosity | Snow |
|---|---|---|---|---|---|---|---|
| 1788558662 | 24.44° C | 31% | 1026.5 hPa | - | - | - | - |
| 1788557762 | 24.44° C | 31% | 1026.5 hPa | - | - | - | - |
| 1788557162 | 25° C | 31% | 1026.5 hPa | - | - | - | - |
| 1788556262 | 25.56° C | 30% | 1026.5 hPa | - | - | - | - |
| 1788553862 | 25.56° C | 30% | 1026.4 hPa | - | - | - | - |
| 1788552963 | 26.11° C | 29% | 1026.2 hPa | - | - | - | - |
| 1788546962 | 28.33° C | 25% | 1024.7 hPa | - | - | - | - |
| 1788543963 | 30° C | 23% | 1024.3 hPa | - | - | - | - |
| 1788543662 | 30.56° C | 22% | 1024.3 hPa | - | - | - | - |
| 1788543062 | 31.11° C | 20% | 1024.1 hPa | - | - | - | - |
| 1788541862 | 31.67° C | 18% | 1024.1 hPa | - | - | - | - |
| 1788541262 | 33.33° C | 17% | 1023.9 hPa | - | - | - | - |
| 1788540962 | 33.89° C | 16% | 1023.9 hPa | - | - | - | - |
| 1788539162 | 33.89° C | 16% | 1024 hPa | - | - | - | - |
| 1788538262 | 33.33° C | 15% | 1024 hPa | - | - | - | - |
| 1788537662 | 33.33° C | 15% | 1024 hPa | - | - | - | - |
| 1788534662 | 32.78° C | 16% | 1023.6 hPa | - | - | - | - |
| 1788533462 | 32.78° C | 17% | 1023.8 hPa | - | - | - | - |
| 1788532863 | 32.78° C | 17% | 1023.6 hPa | - | - | - | - |
| 1788529563 | 31.67° C | 20% | 1023.1 hPa | - | - | - | - |
| 1788528062 | 31.67° C | 22% | 1023.2 hPa | - | - | - | - |
| 1788524162 | 30° C | 29% | 1023.5 hPa | - | - | - | - |
| 1788523562 | 29.44° C | 30% | 1023.6 hPa | - | - | - | - |
| 1788521462 | 28.33° C | 33% | 1023.9 hPa | - | - | - | - |
| 1788520562 | 28.33° C | 35% | 1024.1 hPa | - | - | - | - |
* Rain since midnight (hover to see other rain measurements)
** Current wind speed in m/s (hover to see current wind gust speed)